sensor_id;sensor_type;location;lat;lon;timestamp;temperature;humidity
72114;SHT31;59989;46.220;19.888;2023-03-02T00:02:10;4.42;80.10
72114;SHT31;59989;46.220;19.888;2023-03-02T00:05:14;4.39;79.95
72114;SHT31;59989;46.220;19.888;2023-03-02T00:08:17;4.36;80.23
72114;SHT31;59989;46.220;19.888;2023-03-02T00:11:20;4.35;79.92
72114;SHT31;59989;46.220;19.888;2023-03-02T00:14:23;4.35;80.24
72114;SHT31;59989;46.220;19.888;2023-03-02T00:17:26;4.35;79.96
72114;SHT31;59989;46.220;19.888;2023-03-02T00:20:32;4.35;80.59
72114;SHT31;59989;46.220;19.888;2023-03-02T00:23:37;4.42;80.71
72114;SHT31;59989;46.220;19.888;2023-03-02T00:26:39;4.42;79.45
72114;SHT31;59989;46.220;19.888;2023-03-02T00:29:42;4.41;79.86
72114;SHT31;59989;46.220;19.888;2023-03-02T00:32:45;4.41;79.89
72114;SHT31;59989;46.220;19.888;2023-03-02T00:35:48;4.44;79.06
72114;SHT31;59989;46.220;19.888;2023-03-02T00:38:51;4.46;79.13
72114;SHT31;59989;46.220;19.888;2023-03-02T00:41:53;4.48;78.29
72114;SHT31;59989;46.220;19.888;2023-03-02T00:44:56;4.49;77.36
72114;SHT31;59989;46.220;19.888;2023-03-02T00:48:00;4.48;77.21
72114;SHT31;59989;46.220;19.888;2023-03-02T00:51:04;4.44;77.48
72114;SHT31;59989;46.220;19.888;2023-03-02T00:54:06;4.41;77.65
72114;SHT31;59989;46.220;19.888;2023-03-02T00:57:09;4.36;78.14
72114;SHT31;59989;46.220;19.888;2023-03-02T01:00:11;4.35;78.01
72114;SHT31;59989;46.220;19.888;2023-03-02T01:03:18;4.31;77.76
72114;SHT31;59989;46.220;19.888;2023-03-02T01:06:21;4.31;77.62
72114;SHT31;59989;46.220;19.888;2023-03-02T01:09:25;4.26;76.92
72114;SHT31;59989;46.220;19.888;2023-03-02T01:12:28;4.25;76.56
72114;SHT31;59989;46.220;19.888;2023-03-02T01:15:31;4.26;75.26
72114;SHT31;59989;46.220;19.888;2023-03-02T01:18:34;4.21;74.53
72114;SHT31;59989;46.220;19.888;2023-03-02T01:21:40;4.18;74.28
72114;SHT31;59989;46.220;19.888;2023-03-02T01:24:43;4.18;73.89
72114;SHT31;59989;46.220;19.888;2023-03-02T01:27:45;4.12;73.35
72114;SHT31;59989;46.220;19.888;2023-03-02T01:30:51;4.05;73.42
72114;SHT31;59989;46.220;19.888;2023-03-02T01:33:55;4.02;73.72
72114;SHT31;59989;46.220;19.888;2023-03-02T01:36:58;3.95;73.55
72114;SHT31;59989;46.220;19.888;2023-03-02T01:40:00;3.88;73.22
72114;SHT31;59989;46.220;19.888;2023-03-02T01:43:14;3.84;73.60
72114;SHT31;59989;46.220;19.888;2023-03-02T01:46:24;3.80;73.55
72114;SHT31;59989;46.220;19.888;2023-03-02T01:49:34;3.78;73.87
72114;SHT31;59989;46.220;19.888;2023-03-02T01:52:39;3.74;73.85
72114;SHT31;59989;46.220;19.888;2023-03-02T01:55:42;3.70;74.23
72114;SHT31;59989;46.220;19.888;2023-03-02T01:58:49;3.67;74.45
72114;SHT31;59989;46.220;19.888;2023-03-02T02:01:54;3.63;75.38
72114;SHT31;59989;46.220;19.888;2023-03-02T02:04:57;3.57;76.21
72114;SHT31;59989;46.220;19.888;2023-03-02T02:08:00;3.50;75.84
72114;SHT31;59989;46.220;19.888;2023-03-02T02:11:04;3.47;74.61
72114;SHT31;59989;46.220;19.888;2023-03-02T02:14:07;3.42;74.27
72114;SHT31;59989;46.220;19.888;2023-03-02T02:17:11;3.39;73.78
72114;SHT31;59989;46.220;19.888;2023-03-02T02:20:44;3.32;73.68
72114;SHT31;59989;46.220;19.888;2023-03-02T02:27:17;3.23;73.80
72114;SHT31;59989;46.220;19.888;2023-03-02T02:30:21;3.19;74.63
72114;SHT31;59989;46.220;19.888;2023-03-02T02:33:25;3.16;76.09
72114;SHT31;59989;46.220;19.888;2023-03-02T02:36:31;3.09;76.59
72114;SHT31;59989;46.220;19.888;2023-03-02T02:39:43;3.07;76.98
72114;SHT31;59989;46.220;19.888;2023-03-02T02:42:49;3.02;76.30
72114;SHT31;59989;46.220;19.888;2023-03-02T02:45:55;2.92;76.87
72114;SHT31;59989;46.220;19.888;2023-03-02T02:49:01;2.88;76.87
72114;SHT31;59989;46.220;19.888;2023-03-02T02:52:05;2.81;76.25
72114;SHT31;59989;46.220;19.888;2023-03-02T02:55:13;2.81;76.13
72114;SHT31;59989;46.220;19.888;2023-03-02T03:01:45;2.73;75.63
72114;SHT31;59989;46.220;19.888;2023-03-02T03:04:49;2.71;75.30
72114;SHT31;59989;46.220;19.888;2023-03-02T03:07:52;2.71;74.36
72114;SHT31;59989;46.220;19.888;2023-03-02T03:10:55;2.70;74.97
72114;SHT31;59989;46.220;19.888;2023-03-02T03:14:20;2.67;74.79
72114;SHT31;59989;46.220;19.888;2023-03-02T03:17:26;2.62;73.75
72114;SHT31;59989;46.220;19.888;2023-03-02T03:20:34;2.54;73.59
72114;SHT31;59989;46.220;19.888;2023-03-02T03:23:37;2.50;73.68
72114;SHT31;59989;46.220;19.888;2023-03-02T03:26:42;2.44;73.52
72114;SHT31;59989;46.220;19.888;2023-03-02T03:29:46;2.39;73.80
72114;SHT31;59989;46.220;19.888;2023-03-02T03:32:54;2.34;73.95
72114;SHT31;59989;46.220;19.888;2023-03-02T03:35:56;2.33;74.06
72114;SHT31;59989;46.220;19.888;2023-03-02T03:39:00;2.30;73.84
72114;SHT31;59989;46.220;19.888;2023-03-02T03:42:05;2.19;73.62
72114;SHT31;59989;46.220;19.888;2023-03-02T03:45:08;2.16;73.97
72114;SHT31;59989;46.220;19.888;2023-03-02T03:48:12;2.13;74.44
72114;SHT31;59989;46.220;19.888;2023-03-02T03:51:15;2.11;74.81
72114;SHT31;59989;46.220;19.888;2023-03-02T03:54:20;2.01;74.73
72114;SHT31;59989;46.220;19.888;2023-03-02T03:57:25;2.03;74.67
72114;SHT31;59989;46.220;19.888;2023-03-02T04:00:28;1.95;74.64
72114;SHT31;59989;46.220;19.888;2023-03-02T04:03:37;1.94;74.50
72114;SHT31;59989;46.220;19.888;2023-03-02T04:06:40;1.97;75.15
72114;SHT31;59989;46.220;19.888;2023-03-02T04:09:43;1.88;74.56
72114;SHT31;59989;46.220;19.888;2023-03-02T04:12:48;1.88;74.99
72114;SHT31;59989;46.220;19.888;2023-03-02T04:15:50;1.89;75.37
72114;SHT31;59989;46.220;19.888;2023-03-02T04:18:53;1.86;76.05
72114;SHT31;59989;46.220;19.888;2023-03-02T04:21:56;1.85;76.95
72114;SHT31;59989;46.220;19.888;2023-03-02T04:25:00;1.81;76.41
72114;SHT31;59989;46.220;19.888;2023-03-02T04:28:04;1.71;76.60
72114;SHT31;59989;46.220;19.888;2023-03-02T04:31:10;1.68;77.15
72114;SHT31;59989;46.220;19.888;2023-03-02T04:34:13;1.61;76.71
72114;SHT31;59989;46.220;19.888;2023-03-02T04:37:18;1.61;77.51
72114;SHT31;59989;46.220;19.888;2023-03-02T04:40:21;1.57;77.37
72114;SHT31;59989;46.220;19.888;2023-03-02T04:43:24;1.53;77.70
72114;SHT31;59989;46.220;19.888;2023-03-02T04:46:29;1.50;78.07
72114;SHT31;59989;46.220;19.888;2023-03-02T04:49:32;1.48;77.96
72114;SHT31;59989;46.220;19.888;2023-03-02T04:52:35;1.44;78.09
72114;SHT31;59989;46.220;19.888;2023-03-02T04:55:38;1.42;78.40
72114;SHT31;59989;46.220;19.888;2023-03-02T04:58:40;1.37;78.40
72114;SHT31;59989;46.220;19.888;2023-03-02T05:01:43;1.34;78.30
72114;SHT31;59989;46.220;19.888;2023-03-02T05:04:46;1.32;78.57
72114;SHT31;59989;46.220;19.888;2023-03-02T05:07:49;1.26;78.14
72114;SHT31;59989;46.220;19.888;2023-03-02T05:10:52;1.23;78.79
72114;SHT31;59989;46.220;19.888;2023-03-02T05:13:58;1.23;78.30
72114;SHT31;59989;46.220;19.888;2023-03-02T05:17:01;1.15;77.91
72114;SHT31;59989;46.220;19.888;2023-03-02T05:20:04;1.12;79.44
72114;SHT31;59989;46.220;19.888;2023-03-02T05:23:12;1.10;78.39
72114;SHT31;59989;46.220;19.888;2023-03-02T05:26:26;1.07;78.72
72114;SHT31;59989;46.220;19.888;2023-03-02T05:29:30;1.06;78.92
72114;SHT31;59989;46.220;19.888;2023-03-02T05:32:33;0.99;78.58
72114;SHT31;59989;46.220;19.888;2023-03-02T05:35:36;0.97;79.18
72114;SHT31;59989;46.220;19.888;2023-03-02T05:38:38;0.99;79.07
72114;SHT31;59989;46.220;19.888;2023-03-02T05:41:41;0.93;79.08
72114;SHT31;59989;46.220;19.888;2023-03-02T05:44:43;0.95;79.37
72114;SHT31;59989;46.220;19.888;2023-03-02T05:47:46;0.97;79.10
72114;SHT31;59989;46.220;19.888;2023-03-02T05:50:49;0.95;79.46
72114;SHT31;59989;46.220;19.888;2023-03-02T05:53:52;0.95;78.60
72114;SHT31;59989;46.220;19.888;2023-03-02T05:56:54;0.93;78.70
72114;SHT31;59989;46.220;19.888;2023-03-02T05:59:59;0.91;78.42
72114;SHT31;59989;46.220;19.888;2023-03-02T06:03:01;0.92;78.38
72114;SHT31;59989;46.220;19.888;2023-03-02T06:06:04;0.96;78.69
72114;SHT31;59989;46.220;19.888;2023-03-02T06:09:07;1.05;79.29
72114;SHT31;59989;46.220;19.888;2023-03-02T06:12:09;1.12;79.07
72114;SHT31;59989;46.220;19.888;2023-03-02T06:15:11;1.12;78.85
72114;SHT31;59989;46.220;19.888;2023-03-02T06:18:14;1.13;78.48
72114;SHT31;59989;46.220;19.888;2023-03-02T06:21:17;1.16;78.81
72114;SHT31;59989;46.220;19.888;2023-03-02T06:24:19;1.20;78.85
72114;SHT31;59989;46.220;19.888;2023-03-02T06:27:22;1.16;79.27
72114;SHT31;59989;46.220;19.888;2023-03-02T06:30:25;1.10;78.92
72114;SHT31;59989;46.220;19.888;2023-03-02T06:33:29;1.16;79.01
72114;SHT31;59989;46.220;19.888;2023-03-02T06:36:32;1.19;78.86
72114;SHT31;59989;46.220;19.888;2023-03-02T06:39:34;1.23;78.76
72114;SHT31;59989;46.220;19.888;2023-03-02T06:42:38;1.24;78.36
72114;SHT31;59989;46.220;19.888;2023-03-02T06:45:40;1.42;78.35
72114;SHT31;59989;46.220;19.888;2023-03-02T06:48:43;1.50;78.10
72114;SHT31;59989;46.220;19.888;2023-03-02T06:51:45;1.61;78.71
72114;SHT31;59989;46.220;19.888;2023-03-02T06:54:48;1.82;77.90
72114;SHT31;59989;46.220;19.888;2023-03-02T06:57:50;1.89;77.76
72114;SHT31;59989;46.220;19.888;2023-03-02T07:00:53;2.02;77.71
72114;SHT31;59989;46.220;19.888;2023-03-02T07:03:56;2.11;77.62
72114;SHT31;59989;46.220;19.888;2023-03-02T07:06:58;2.03;77.21
72114;SHT31;59989;46.220;19.888;2023-03-02T07:10:01;2.19;77.41
72114;SHT31;59989;46.220;19.888;2023-03-02T07:13:03;2.32;77.03
72114;SHT31;59989;46.220;19.888;2023-03-02T07:16:10;2.39;76.53
72114;SHT31;59989;46.220;19.888;2023-03-02T07:19:13;2.47;76.63
72114;SHT31;59989;46.220;19.888;2023-03-02T07:22:16;2.51;75.83
72114;SHT31;59989;46.220;19.888;2023-03-02T07:25:19;2.65;76.19
72114;SHT31;59989;46.220;19.888;2023-03-02T07:28:21;2.57;76.02
72114;SHT31;59989;46.220;19.888;2023-03-02T07:31:25;2.64;76.33
72114;SHT31;59989;46.220;19.888;2023-03-02T07:34:28;2.62;76.47
72114;SHT31;59989;46.220;19.888;2023-03-02T07:37:30;2.70;76.54
72114;SHT31;59989;46.220;19.888;2023-03-02T07:40:33;2.87;76.99
72114;SHT31;59989;46.220;19.888;2023-03-02T07:43:36;2.85;75.92
72114;SHT31;59989;46.220;19.888;2023-03-02T07:46:39;2.83;76.94
72114;SHT31;59989;46.220;19.888;2023-03-02T07:49:41;3.08;76.65
72114;SHT31;59989;46.220;19.888;2023-03-02T07:52:44;3.20;76.10
72114;SHT31;59989;46.220;19.888;2023-03-02T07:55:46;3.33;76.04
72114;SHT31;59989;46.220;19.888;2023-03-02T07:58:49;3.49;76.13
72114;SHT31;59989;46.220;19.888;2023-03-02T08:01:51;3.73;74.72
72114;SHT31;59989;46.220;19.888;2023-03-02T08:04:54;3.80;74.71
72114;SHT31;59989;46.220;19.888;2023-03-02T08:07:57;3.94;74.33
72114;SHT31;59989;46.220;19.888;2023-03-02T08:11:08;4.07;75.07
72114;SHT31;59989;46.220;19.888;2023-03-02T08:14:10;4.48;73.78
72114;SHT31;59989;46.220;19.888;2023-03-02T08:17:13;4.53;72.59
72114;SHT31;59989;46.220;19.888;2023-03-02T08:20:15;4.48;73.51
72114;SHT31;59989;46.220;19.888;2023-03-02T08:23:19;4.36;73.67
72114;SHT31;59989;46.220;19.888;2023-03-02T08:26:21;4.35;74.71
72114;SHT31;59989;46.220;19.888;2023-03-02T08:29:24;4.39;74.15
72114;SHT31;59989;46.220;19.888;2023-03-02T08:32:27;4.31;74.31
72114;SHT31;59989;46.220;19.888;2023-03-02T08:35:29;4.39;74.41
72114;SHT31;59989;46.220;19.888;2023-03-02T08:38:33;4.55;74.34
72114;SHT31;59989;46.220;19.888;2023-03-02T08:41:35;4.53;74.63
72114;SHT31;59989;46.220;19.888;2023-03-02T08:44:38;4.72;74.61
72114;SHT31;59989;46.220;19.888;2023-03-02T08:47:40;4.88;74.18
72114;SHT31;59989;46.220;19.888;2023-03-02T08:50:57;4.91;73.96
72114;SHT31;59989;46.220;19.888;2023-03-02T08:54:00;4.80;73.94
72114;SHT31;59989;46.220;19.888;2023-03-02T08:57:03;4.87;73.68
72114;SHT31;59989;46.220;19.888;2023-03-02T09:00:06;4.98;74.28
72114;SHT31;59989;46.220;19.888;2023-03-02T09:03:10;5.11;74.09
72114;SHT31;59989;46.220;19.888;2023-03-02T09:06:13;5.17;73.39
72114;SHT31;59989;46.220;19.888;2023-03-02T09:09:16;5.52;73.23
72114;SHT31;59989;46.220;19.888;2023-03-02T09:12:19;5.39;72.46
72114;SHT31;59989;46.220;19.888;2023-03-02T09:15:21;5.49;72.39
72114;SHT31;59989;46.220;19.888;2023-03-02T09:18:24;5.59;72.57
72114;SHT31;59989;46.220;19.888;2023-03-02T09:21:27;5.94;72.30
72114;SHT31;59989;46.220;19.888;2023-03-02T09:24:32;5.89;71.93
72114;SHT31;59989;46.220;19.888;2023-03-02T09:27:35;5.97;72.03
72114;SHT31;59989;46.220;19.888;2023-03-02T09:30:38;6.31;71.39
72114;SHT31;59989;46.220;19.888;2023-03-02T09:33:40;6.46;71.73
72114;SHT31;59989;46.220;19.888;2023-03-02T09:36:43;6.65;71.84
72114;SHT31;59989;46.220;19.888;2023-03-02T09:39:47;6.45;71.68
72114;SHT31;59989;46.220;19.888;2023-03-02T09:52:49;7.03;71.79
72114;SHT31;59989;46.220;19.888;2023-03-02T09:55:56;6.83;72.39
72114;SHT31;59989;46.220;19.888;2023-03-02T09:59:06;7.09;72.36
72114;SHT31;59989;46.220;19.888;2023-03-02T10:02:30;7.14;72.18
72114;SHT31;59989;46.220;19.888;2023-03-02T10:05:40;7.28;72.22
72114;SHT31;59989;46.220;19.888;2023-03-02T10:08:43;7.48;71.62
72114;SHT31;59989;46.220;19.888;2023-03-02T10:11:57;7.32;71.56
72114;SHT31;59989;46.220;19.888;2023-03-02T10:15:25;7.46;72.11
72114;SHT31;59989;46.220;19.888;2023-03-02T10:18:39;7.28;71.95
72114;SHT31;59989;46.220;19.888;2023-03-02T10:21:45;7.38;72.70
72114;SHT31;59989;46.220;19.888;2023-03-02T10:28:16;7.59;72.48
72114;SHT31;59989;46.220;19.888;2023-03-02T10:31:27;7.68;72.65
72114;SHT31;59989;46.220;19.888;2023-03-02T10:34:30;7.92;71.82
72114;SHT31;59989;46.220;19.888;2023-03-02T10:37:33;7.78;71.83
72114;SHT31;59989;46.220;19.888;2023-03-02T10:44:01;7.74;72.70
72114;SHT31;59989;46.220;19.888;2023-03-02T10:47:05;7.92;72.85
72114;SHT31;59989;46.220;19.888;2023-03-02T10:50:22;7.96;73.07
72114;SHT31;59989;46.220;19.888;2023-03-02T10:53:25;7.99;72.53
72114;SHT31;59989;46.220;19.888;2023-03-02T10:56:28;8.00;72.87
72114;SHT31;59989;46.220;19.888;2023-03-02T10:59:38;8.07;72.42
72114;SHT31;59989;46.220;19.888;2023-03-02T11:02:54;8.26;71.71
72114;SHT31;59989;46.220;19.888;2023-03-02T11:05:58;8.40;71.61
72114;SHT31;59989;46.220;19.888;2023-03-02T11:09:12;8.57;71.72
72114;SHT31;59989;46.220;19.888;2023-03-02T11:12:16;8.33;71.96
72114;SHT31;59989;46.220;19.888;2023-03-02T11:18:37;8.38;72.44
72114;SHT31;59989;46.220;19.888;2023-03-02T11:22:18;8.34;72.04
72114;SHT31;59989;46.220;19.888;2023-03-02T11:25:38;8.34;72.05
72114;SHT31;59989;46.220;19.888;2023-03-02T11:28:48;8.36;73.05
72114;SHT31;59989;46.220;19.888;2023-03-02T11:32:03;8.36;72.12
72114;SHT31;59989;46.220;19.888;2023-03-02T11:38:27;8.46;72.29
72114;SHT31;59989;46.220;19.888;2023-03-02T11:41:34;8.75;71.62
72114;SHT31;59989;46.220;19.888;2023-03-02T11:44:37;8.98;70.86
72114;SHT31;59989;46.220;19.888;2023-03-02T11:48:01;9.11;70.91
72114;SHT31;59989;46.220;19.888;2023-03-02T11:51:13;9.27;70.11
72114;SHT31;59989;46.220;19.888;2023-03-02T11:54:24;9.74;69.22
72114;SHT31;59989;46.220;19.888;2023-03-02T11:57:43;9.67;69.01
72114;SHT31;59989;46.220;19.888;2023-03-02T12:00:50;9.80;69.29
72114;SHT31;59989;46.220;19.888;2023-03-02T12:04:05;10.15;67.75
72114;SHT31;59989;46.220;19.888;2023-03-02T12:07:25;10.02;68.03
72114;SHT31;59989;46.220;19.888;2023-03-02T12:10:38;10.08;68.66
72114;SHT31;59989;46.220;19.888;2023-03-02T12:13:43;10.25;68.14
72114;SHT31;59989;46.220;19.888;2023-03-02T12:16:46;10.12;68.46
72114;SHT31;59989;46.220;19.888;2023-03-02T12:19:51;10.21;68.54
72114;SHT31;59989;46.220;19.888;2023-03-02T12:23:06;10.43;68.69
72114;SHT31;59989;46.220;19.888;2023-03-02T12:29:22;11.21;65.22
72114;SHT31;59989;46.220;19.888;2023-03-02T12:32:28;11.73;65.15
72114;SHT31;59989;46.220;19.888;2023-03-02T12:35:38;12.33;61.80
72114;SHT31;59989;46.220;19.888;2023-03-02T12:55:30;12.21;60.83
72114;SHT31;59989;46.220;19.888;2023-03-02T12:58:34;12.04;62.58
72114;SHT31;59989;46.220;19.888;2023-03-02T13:01:36;11.80;63.09
72114;SHT31;59989;46.220;19.888;2023-03-02T13:04:39;11.75;63.61
72114;SHT31;59989;46.220;19.888;2023-03-02T13:07:46;11.97;63.90
72114;SHT31;59989;46.220;19.888;2023-03-02T13:10:57;11.91;63.61
72114;SHT31;59989;46.220;19.888;2023-03-02T13:14:01;11.67;65.27
72114;SHT31;59989;46.220;19.888;2023-03-02T13:17:21;11.43;66.14
72114;SHT31;59989;46.220;19.888;2023-03-02T13:20:26;11.27;65.75
72114;SHT31;59989;46.220;19.888;2023-03-02T13:23:30;11.62;65.04
72114;SHT31;59989;46.220;19.888;2023-03-02T13:26:35;11.40;65.10
72114;SHT31;59989;46.220;19.888;2023-03-02T13:29:38;11.17;67.22
72114;SHT31;59989;46.220;19.888;2023-03-02T13:32:41;11.10;66.74
72114;SHT31;59989;46.220;19.888;2023-03-02T13:35:46;10.90;67.06
72114;SHT31;59989;46.220;19.888;2023-03-02T13:38:55;10.90;68.13
72114;SHT31;59989;46.220;19.888;2023-03-02T13:42:00;10.76;69.07
72114;SHT31;59989;46.220;19.888;2023-03-02T13:45:29;10.42;69.82
72114;SHT31;59989;46.220;19.888;2023-03-02T13:48:32;10.40;71.09
72114;SHT31;59989;46.220;19.888;2023-03-02T13:51:44;10.45;70.82
72114;SHT31;59989;46.220;19.888;2023-03-02T13:54:47;10.50;70.96
72114;SHT31;59989;46.220;19.888;2023-03-02T13:57:51;10.16;71.37
72114;SHT31;59989;46.220;19.888;2023-03-02T14:00:56;10.33;70.76
72114;SHT31;59989;46.220;19.888;2023-03-02T14:03:59;10.39;70.51
72114;SHT31;59989;46.220;19.888;2023-03-02T14:07:02;10.35;70.67
72114;SHT31;59989;46.220;19.888;2023-03-02T14:10:05;9.95;72.06
72114;SHT31;59989;46.220;19.888;2023-03-02T14:13:14;10.06;72.49
72114;SHT31;59989;46.220;19.888;2023-03-02T14:16:17;10.11;72.61
72114;SHT31;59989;46.220;19.888;2023-03-02T14:19:20;10.06;72.47
72114;SHT31;59989;46.220;19.888;2023-03-02T14:22:25;10.05;72.25
72114;SHT31;59989;46.220;19.888;2023-03-02T14:25:28;9.78;73.74
72114;SHT31;59989;46.220;19.888;2023-03-02T14:28:32;9.71;74.55
72114;SHT31;59989;46.220;19.888;2023-03-02T14:31:37;9.61;75.16
72114;SHT31;59989;46.220;19.888;2023-03-02T14:34:40;9.65;75.16
72114;SHT31;59989;46.220;19.888;2023-03-02T14:37:46;9.46;76.03
72114;SHT31;59989;46.220;19.888;2023-03-02T14:40:52;9.39;76.92
72114;SHT31;59989;46.220;19.888;2023-03-02T14:43:55;9.46;77.01
72114;SHT31;59989;46.220;19.888;2023-03-02T14:46:57;9.50;77.22
72114;SHT31;59989;46.220;19.888;2023-03-02T14:50:00;9.42;77.42
72114;SHT31;59989;46.220;19.888;2023-03-02T14:53:04;9.18;77.99
72114;SHT31;59989;46.220;19.888;2023-03-02T14:56:09;9.11;77.96
72114;SHT31;59989;46.220;19.888;2023-03-02T14:59:13;8.89;78.28
72114;SHT31;59989;46.220;19.888;2023-03-02T15:02:17;8.91;78.12
72114;SHT31;59989;46.220;19.888;2023-03-02T15:05:28;8.92;78.29
72114;SHT31;59989;46.220;19.888;2023-03-02T15:08:30;8.89;78.02
72114;SHT31;59989;46.220;19.888;2023-03-02T15:11:34;8.92;78.15
72114;SHT31;59989;46.220;19.888;2023-03-02T15:14:37;8.95;78.03
72114;SHT31;59989;46.220;19.888;2023-03-02T15:17:39;8.72;77.57
72114;SHT31;59989;46.220;19.888;2023-03-02T15:20:44;8.76;77.56
72114;SHT31;59989;46.220;19.888;2023-03-02T15:23:47;8.65;77.39
72114;SHT31;59989;46.220;19.888;2023-03-02T15:26:49;8.60;77.57
72114;SHT31;59989;46.220;19.888;2023-03-02T15:29:52;8.55;77.94
72114;SHT31;59989;46.220;19.888;2023-03-02T15:32:57;8.47;78.17
72114;SHT31;59989;46.220;19.888;2023-03-02T15:36:00;8.53;78.52
72114;SHT31;59989;46.220;19.888;2023-03-02T15:39:04;8.44;79.35
72114;SHT31;59989;46.220;19.888;2023-03-02T15:42:09;8.32;79.45
72114;SHT31;59989;46.220;19.888;2023-03-02T15:45:14;8.29;79.32
72114;SHT31;59989;46.220;19.888;2023-03-02T15:48:17;8.26;79.54
72114;SHT31;59989;46.220;19.888;2023-03-02T15:51:19;8.26;79.91
72114;SHT31;59989;46.220;19.888;2023-03-02T15:54:24;8.20;79.80
72114;SHT31;59989;46.220;19.888;2023-03-02T15:57:26;8.25;80.05
72114;SHT31;59989;46.220;19.888;2023-03-02T16:00:29;8.12;80.08
72114;SHT31;59989;46.220;19.888;2023-03-02T16:03:32;8.07;79.84
72114;SHT31;59989;46.220;19.888;2023-03-02T16:06:34;7.99;79.76
72114;SHT31;59989;46.220;19.888;2023-03-02T16:09:38;7.98;79.89
72114;SHT31;59989;46.220;19.888;2023-03-02T16:12:47;7.85;80.19
72114;SHT31;59989;46.220;19.888;2023-03-02T16:15:50;7.86;80.28
72114;SHT31;59989;46.220;19.888;2023-03-02T16:18:54;7.85;80.58
72114;SHT31;59989;46.220;19.888;2023-03-02T16:21:57;7.86;80.49
72114;SHT31;59989;46.220;19.888;2023-03-02T16:24:59;7.75;80.82
72114;SHT31;59989;46.220;19.888;2023-03-02T16:28:02;7.77;80.99
72114;SHT31;59989;46.220;19.888;2023-03-02T16:31:09;7.78;81.15
72114;SHT31;59989;46.220;19.888;2023-03-02T16:34:13;7.75;81.44
72114;SHT31;59989;46.220;19.888;2023-03-02T16:37:15;7.75;81.71
72114;SHT31;59989;46.220;19.888;2023-03-02T16:40:19;7.67;81.97
72114;SHT31;59989;46.220;19.888;2023-03-02T16:43:22;7.67;82.24
72114;SHT31;59989;46.220;19.888;2023-03-02T16:46:28;7.68;82.63
72114;SHT31;59989;46.220;19.888;2023-03-02T16:49:31;7.58;82.74
72114;SHT31;59989;46.220;19.888;2023-03-02T16:52:34;7.55;82.79
72114;SHT31;59989;46.220;19.888;2023-03-02T16:55:39;7.57;82.83
72114;SHT31;59989;46.220;19.888;2023-03-02T16:58:42;7.55;83.24
72114;SHT31;59989;46.220;19.888;2023-03-02T17:01:44;7.54;83.40
72114;SHT31;59989;46.220;19.888;2023-03-02T17:04:47;7.52;83.86
72114;SHT31;59989;46.220;19.888;2023-03-02T17:07:49;7.54;83.72
72114;SHT31;59989;46.220;19.888;2023-03-02T17:10:52;7.48;83.90
72114;SHT31;59989;46.220;19.888;2023-03-02T17:13:55;7.50;84.09
72114;SHT31;59989;46.220;19.888;2023-03-02T17:16:57;7.50;84.54
72114;SHT31;59989;46.220;19.888;2023-03-02T17:20:00;7.44;84.83
72114;SHT31;59989;46.220;19.888;2023-03-02T17:23:04;7.38;85.13
72114;SHT31;59989;46.220;19.888;2023-03-02T17:26:07;7.34;85.52
72114;SHT31;59989;46.220;19.888;2023-03-02T17:29:09;7.27;85.93
72114;SHT31;59989;46.220;19.888;2023-03-02T17:32:12;7.24;86.24
72114;SHT31;59989;46.220;19.888;2023-03-02T17:35:14;7.21;86.43
72114;SHT31;59989;46.220;19.888;2023-03-02T17:38:17;7.17;86.43
72114;SHT31;59989;46.220;19.888;2023-03-02T17:41:20;7.13;86.75
72114;SHT31;59989;46.220;19.888;2023-03-02T17:44:22;7.13;86.77
72114;SHT31;59989;46.220;19.888;2023-03-02T17:47:25;7.13;86.88
72114;SHT31;59989;46.220;19.888;2023-03-02T17:50:29;7.09;86.99
72114;SHT31;59989;46.220;19.888;2023-03-02T17:53:35;7.06;87.06
72114;SHT31;59989;46.220;19.888;2023-03-02T17:56:38;7.04;87.31
72114;SHT31;59989;46.220;19.888;2023-03-02T17:59:40;7.04;87.39
72114;SHT31;59989;46.220;19.888;2023-03-02T18:02:43;6.99;87.63
72114;SHT31;59989;46.220;19.888;2023-03-02T18:05:46;6.97;87.65
72114;SHT31;59989;46.220;19.888;2023-03-02T18:08:49;7.00;87.76
72114;SHT31;59989;46.220;19.888;2023-03-02T18:11:52;6.95;87.82
72114;SHT31;59989;46.220;19.888;2023-03-02T18:14:54;6.88;88.03
72114;SHT31;59989;46.220;19.888;2023-03-02T18:17:57;6.88;88.16
72114;SHT31;59989;46.220;19.888;2023-03-02T18:21:00;6.83;88.31
72114;SHT31;59989;46.220;19.888;2023-03-02T18:24:03;6.75;88.47
72114;SHT31;59989;46.220;19.888;2023-03-02T18:27:06;6.78;88.55
72114;SHT31;59989;46.220;19.888;2023-03-02T18:30:09;6.76;88.68
72114;SHT31;59989;46.220;19.888;2023-03-02T18:33:16;6.76;88.84
72114;SHT31;59989;46.220;19.888;2023-03-02T18:36:19;6.75;89.01
72114;SHT31;59989;46.220;19.888;2023-03-02T18:39:22;6.69;89.16
72114;SHT31;59989;46.220;19.888;2023-03-02T18:42:26;6.68;89.14
72114;SHT31;59989;46.220;19.888;2023-03-02T18:45:30;6.68;89.09
72114;SHT31;59989;46.220;19.888;2023-03-02T18:48:33;6.68;88.98
72114;SHT31;59989;46.220;19.888;2023-03-02T18:51:36;6.68;88.90
72114;SHT31;59989;46.220;19.888;2023-03-02T18:54:38;6.68;88.92
72114;SHT31;59989;46.220;19.888;2023-03-02T18:57:41;6.65;88.83
72114;SHT31;59989;46.220;19.888;2023-03-02T19:00:46;6.69;88.87
72114;SHT31;59989;46.220;19.888;2023-03-02T19:03:49;6.68;88.84
72114;SHT31;59989;46.220;19.888;2023-03-02T19:06:52;6.69;88.88
72114;SHT31;59989;46.220;19.888;2023-03-02T19:09:57;6.69;88.90
72114;SHT31;59989;46.220;19.888;2023-03-02T19:13:00;6.71;88.89
72114;SHT31;59989;46.220;19.888;2023-03-02T19:16:02;6.73;88.67
72114;SHT31;59989;46.220;19.888;2023-03-02T19:19:05;6.72;88.59
72114;SHT31;59989;46.220;19.888;2023-03-02T19:22:08;6.76;88.34
72114;SHT31;59989;46.220;19.888;2023-03-02T19:25:11;6.75;88.16
72114;SHT31;59989;46.220;19.888;2023-03-02T19:28:13;6.75;88.20
72114;SHT31;59989;46.220;19.888;2023-03-02T19:31:16;6.73;87.97
72114;SHT31;59989;46.220;19.888;2023-03-02T19:34:20;6.72;88.05
72114;SHT31;59989;46.220;19.888;2023-03-02T19:37:22;6.69;87.99
72114;SHT31;59989;46.220;19.888;2023-03-02T19:40:27;6.68;87.86
72114;SHT31;59989;46.220;19.888;2023-03-02T19:43:31;6.69;87.95
72114;SHT31;59989;46.220;19.888;2023-03-02T19:46:34;6.71;87.72
72114;SHT31;59989;46.220;19.888;2023-03-02T19:49:38;6.65;87.74
72114;SHT31;59989;46.220;19.888;2023-03-02T19:52:41;6.73;87.82
72114;SHT31;59989;46.220;19.888;2023-03-02T19:55:44;6.72;87.76
72114;SHT31;59989;46.220;19.888;2023-03-02T19:58:47;6.71;87.74
72114;SHT31;59989;46.220;19.888;2023-03-02T20:01:51;6.75;87.58
72114;SHT31;59989;46.220;19.888;2023-03-02T20:04:54;6.71;87.60
72114;SHT31;59989;46.220;19.888;2023-03-02T20:07:57;6.72;87.67
72114;SHT31;59989;46.220;19.888;2023-03-02T20:10:59;6.75;87.61
72114;SHT31;59989;46.220;19.888;2023-03-02T20:14:03;6.75;87.61
72114;SHT31;59989;46.220;19.888;2023-03-02T20:17:05;6.72;87.60